sensor_id;sensor_type;location;lat;lon;timestamp;temperature;humidity
2300;DHT22;1158;48.750;9.078;2023-11-18T09:28:51;6.80;99.90
2300;DHT22;1158;48.750;9.078;2023-11-18T09:31:18;6.90;99.90
2300;DHT22;1158;48.750;9.078;2023-11-18T09:33:47;7.10;99.90
2300;DHT22;1158;48.750;9.078;2023-11-18T09:36:19;7.20;99.90
2300;DHT22;1158;48.750;9.078;2023-11-18T09:38:46;7.00;99.90
2300;DHT22;1158;48.750;9.078;2023-11-18T09:41:13;7.00;99.90
2300;DHT22;1158;48.750;9.078;2023-11-18T09:43:42;7.10;99.90
2300;DHT22;1158;48.750;9.078;2023-11-18T09:46:11;7.30;99.90
2300;DHT22;1158;48.750;9.078;2023-11-18T09:51:19;7.80;99.90
2300;DHT22;1158;48.750;9.078;2023-11-18T09:53:49;7.80;99.90
2300;DHT22;1158;48.750;9.078;2023-11-18T09:56:23;8.10;99.90
2300;DHT22;1158;48.750;9.078;2023-11-18T09:59:03;8.00;99.90
2300;DHT22;1158;48.750;9.078;2023-11-18T10:01:36;8.20;99.90
2300;DHT22;1158;48.750;9.078;2023-11-18T10:04:05;8.30;99.90
2300;DHT22;1158;48.750;9.078;2023-11-18T10:06:35;8.60;99.90
2300;DHT22;1158;48.750;9.078;2023-11-18T10:09:02;8.40;99.90
2300;DHT22;1158;48.750;9.078;2023-11-18T10:11:41;8.60;99.90
2300;DHT22;1158;48.750;9.078;2023-11-18T10:14:08;8.70;99.90
2300;DHT22;1158;48.750;9.078;2023-11-18T10:16:36;8.30;99.90
2300;DHT22;1158;48.750;9.078;2023-11-18T10:19:04;8.50;99.90
2300;DHT22;1158;48.750;9.078;2023-11-18T10:21:35;8.50;99.90
2300;DHT22;1158;48.750;9.078;2023-11-18T10:24:05;8.60;99.90
2300;DHT22;1158;48.750;9.078;2023-11-18T10:26:40;8.60;99.90
2300;DHT22;1158;48.750;9.078;2023-11-18T10:29:09;8.50;99.90
2300;DHT22;1158;48.750;9.078;2023-11-18T10:31:36;8.40;99.90
2300;DHT22;1158;48.750;9.078;2023-11-18T10:34:11;8.50;99.90
2300;DHT22;1158;48.750;9.078;2023-11-18T10:36:58;8.60;99.90
2300;DHT22;1158;48.750;9.078;2023-11-18T10:39:28;8.50;99.90
2300;DHT22;1158;48.750;9.078;2023-11-18T10:41:59;8.40;99.90
2300;DHT22;1158;48.750;9.078;2023-11-18T10:44:26;8.50;99.90
2300;DHT22;1158;48.750;9.078;2023-11-18T10:46:53;8.50;99.90
2300;DHT22;1158;48.750;9.078;2023-11-18T10:49:21;8.50;99.90
2300;DHT22;1158;48.750;9.078;2023-11-18T10:51:51;8.50;99.90
2300;DHT22;1158;48.750;9.078;2023-11-18T10:54:18;8.60;99.90
2300;DHT22;1158;48.750;9.078;2023-11-18T10:56:49;8.60;99.90
2300;DHT22;1158;48.750;9.078;2023-11-18T10:59:16;8.50;99.90
2300;DHT22;1158;48.750;9.078;2023-11-18T11:01:44;8.40;99.90
2300;DHT22;1158;48.750;9.078;2023-11-18T11:04:14;8.40;99.90
2300;DHT22;1158;48.750;9.078;2023-11-18T11:06:43;8.40;99.90
2300;DHT22;1158;48.750;9.078;2023-11-18T11:09:18;8.40;99.90
2300;DHT22;1158;48.750;9.078;2023-11-18T11:11:53;8.30;99.90
2300;DHT22;1158;48.750;9.078;2023-11-18T11:14:21;8.30;99.90
2300;DHT22;1158;48.750;9.078;2023-11-18T11:16:52;8.30;99.90
2300;DHT22;1158;48.750;9.078;2023-11-18T11:19:24;8.50;99.90
2300;DHT22;1158;48.750;9.078;2023-11-18T11:21:55;8.50;99.90
2300;DHT22;1158;48.750;9.078;2023-11-18T11:24:40;8.20;99.90
2300;DHT22;1158;48.750;9.078;2023-11-18T11:27:21;8.20;99.90
2300;DHT22;1158;48.750;9.078;2023-11-18T11:29:59;8.20;99.90
2300;DHT22;1158;48.750;9.078;2023-11-18T11:32:39;8.20;99.90
2300;DHT22;1158;48.750;9.078;2023-11-18T11:35:18;8.30;99.90
2300;DHT22;1158;48.750;9.078;2023-11-18T11:37:47;8.20;99.90
2300;DHT22;1158;48.750;9.078;2023-11-18T11:40:16;8.30;99.90
2300;DHT22;1158;48.750;9.078;2023-11-18T11:42:50;8.40;99.90
2300;DHT22;1158;48.750;9.078;2023-11-18T11:45:22;8.40;99.90
2300;DHT22;1158;48.750;9.078;2023-11-18T11:47:54;8.20;99.90
2300;DHT22;1158;48.750;9.078;2023-11-18T11:50:44;8.20;99.90
2300;DHT22;1158;48.750;9.078;2023-11-18T11:53:15;8.20;99.90
2300;DHT22;1158;48.750;9.078;2023-11-18T11:55:47;8.00;99.90
2300;DHT22;1158;48.750;9.078;2023-11-18T11:58:26;7.90;99.90
2300;DHT22;1158;48.750;9.078;2023-11-18T12:00:53;7.90;99.90
2300;DHT22;1158;48.750;9.078;2023-11-18T12:03:21;8.00;99.90
2300;DHT22;1158;48.750;9.078;2023-11-18T12:05:49;7.90;99.90
2300;DHT22;1158;48.750;9.078;2023-11-18T12:08:17;7.80;99.90
2300;DHT22;1158;48.750;9.078;2023-11-18T12:10:54;7.70;99.90
2300;DHT22;1158;48.750;9.078;2023-11-18T12:13:21;7.90;99.90
2300;DHT22;1158;48.750;9.078;2023-11-18T12:15:53;8.60;99.90
2300;DHT22;1158;48.750;9.078;2023-11-18T12:18:23;8.50;99.90
2300;DHT22;1158;48.750;9.078;2023-11-18T12:20:50;8.30;99.90
2300;DHT22;1158;48.750;9.078;2023-11-18T12:23:21;8.30;99.90
2300;DHT22;1158;48.750;9.078;2023-11-18T12:25:52;8.80;99.90
2300;DHT22;1158;48.750;9.078;2023-11-18T12:28:24;8.90;99.90
2300;DHT22;1158;48.750;9.078;2023-11-18T12:30:53;8.60;99.90
2300;DHT22;1158;48.750;9.078;2023-11-18T12:33:23;8.40;99.90
2300;DHT22;1158;48.750;9.078;2023-11-18T12:43:01;7.90;99.90
2300;DHT22;1158;48.750;9.078;2023-11-18T12:45:58;7.80;99.90
2300;DHT22;1158;48.750;9.078;2023-11-18T12:48:31;7.70;99.90
2300;DHT22;1158;48.750;9.078;2023-11-18T12:50:59;7.60;99.90
2300;DHT22;1158;48.750;9.078;2023-11-18T12:53:26;7.60;99.90
2300;DHT22;1158;48.750;9.078;2023-11-18T12:55:54;7.60;99.90
2300;DHT22;1158;48.750;9.078;2023-11-18T12:58:22;7.50;99.90
2300;DHT22;1158;48.750;9.078;2023-11-18T13:00:49;7.40;99.90
2300;DHT22;1158;48.750;9.078;2023-11-18T13:03:16;7.40;99.90
2300;DHT22;1158;48.750;9.078;2023-11-18T13:05:43;7.30;99.90
2300;DHT22;1158;48.750;9.078;2023-11-18T13:08:11;7.20;99.90
2300;DHT22;1158;48.750;9.078;2023-11-18T13:10:40;7.20;99.90
2300;DHT22;1158;48.750;9.078;2023-11-18T13:13:08;7.10;99.90
2300;DHT22;1158;48.750;9.078;2023-11-18T13:15:40;7.10;99.90
2300;DHT22;1158;48.750;9.078;2023-11-18T13:18:07;7.10;99.90
2300;DHT22;1158;48.750;9.078;2023-11-18T13:20:34;7.20;99.90
2300;DHT22;1158;48.750;9.078;2023-11-18T13:23:01;7.20;99.90
2300;DHT22;1158;48.750;9.078;2023-11-18T13:25:34;7.10;99.90
2300;DHT22;1158;48.750;9.078;2023-11-18T13:28:01;7.10;99.90
2300;DHT22;1158;48.750;9.078;2023-11-18T13:30:30;7.10;99.90
2300;DHT22;1158;48.750;9.078;2023-11-18T13:32:58;7.10;99.90
2300;DHT22;1158;48.750;9.078;2023-11-18T13:35:25;7.10;99.90
2300;DHT22;1158;48.750;9.078;2023-11-18T13:37:54;7.10;99.90
2300;DHT22;1158;48.750;9.078;2023-11-18T13:40:21;7.00;99.90
2300;DHT22;1158;48.750;9.078;2023-11-18T13:43:01;7.00;99.90
2300;DHT22;1158;48.750;9.078;2023-11-18T13:45:28;7.00;99.90
2300;DHT22;1158;48.750;9.078;2023-11-18T13:47:57;6.90;99.90
2300;DHT22;1158;48.750;9.078;2023-11-18T13:50:26;7.00;99.90
2300;DHT22;1158;48.750;9.078;2023-11-18T13:52:54;6.90;99.90
2300;DHT22;1158;48.750;9.078;2023-11-18T13:55:21;6.90;99.90
2300;DHT22;1158;48.750;9.078;2023-11-18T13:57:52;6.80;99.90
2300;DHT22;1158;48.750;9.078;2023-11-18T14:00:22;6.80;99.90
2300;DHT22;1158;48.750;9.078;2023-11-18T14:02:48;6.80;99.90
2300;DHT22;1158;48.750;9.078;2023-11-18T14:05:18;6.80;99.90
2300;DHT22;1158;48.750;9.078;2023-11-18T14:07:47;6.80;99.90
2300;DHT22;1158;48.750;9.078;2023-11-18T14:10:14;6.70;99.90
2300;DHT22;1158;48.750;9.078;2023-11-18T14:12:58;6.70;99.90
2300;DHT22;1158;48.750;9.078;2023-11-18T14:15:25;6.70;99.90
2300;DHT22;1158;48.750;9.078;2023-11-18T14:17:52;6.70;99.90
2300;DHT22;1158;48.750;9.078;2023-11-18T14:20:20;6.60;99.90
2300;DHT22;1158;48.750;9.078;2023-11-18T14:22:48;6.70;99.90
2300;DHT22;1158;48.750;9.078;2023-11-18T14:25:14;6.70;99.90
2300;DHT22;1158;48.750;9.078;2023-11-18T14:27:42;6.70;99.90
2300;DHT22;1158;48.750;9.078;2023-11-18T14:30:10;6.60;99.90
2300;DHT22;1158;48.750;9.078;2023-11-18T14:32:38;6.60;99.90
2300;DHT22;1158;48.750;9.078;2023-11-18T14:35:06;6.60;99.90
2300;DHT22;1158;48.750;9.078;2023-11-18T14:37:39;6.60;99.90
2300;DHT22;1158;48.750;9.078;2023-11-18T14:40:10;6.60;99.90
2300;DHT22;1158;48.750;9.078;2023-11-18T14:42:40;6.60;99.90
2300;DHT22;1158;48.750;9.078;2023-11-18T14:45:08;6.60;99.90
2300;DHT22;1158;48.750;9.078;2023-11-18T14:47:35;6.60;99.90
2300;DHT22;1158;48.750;9.078;2023-11-18T14:50:01;6.60;99.90
2300;DHT22;1158;48.750;9.078;2023-11-18T14:52:31;6.60;99.90
2300;DHT22;1158;48.750;9.078;2023-11-18T14:54:59;6.60;99.90
2300;DHT22;1158;48.750;9.078;2023-11-18T14:57:26;6.60;99.90
2300;DHT22;1158;48.750;9.078;2023-11-18T14:59:54;6.60;99.90
2300;DHT22;1158;48.750;9.078;2023-11-18T15:02:20;6.60;99.90
2300;DHT22;1158;48.750;9.078;2023-11-18T15:04:47;6.60;99.90
2300;DHT22;1158;48.750;9.078;2023-11-18T15:07:14;6.60;99.90
2300;DHT22;1158;48.750;9.078;2023-11-18T15:09:41;6.60;99.90
2300;DHT22;1158;48.750;9.078;2023-11-18T15:12:09;6.60;99.90
2300;DHT22;1158;48.750;9.078;2023-11-18T15:14:37;6.60;99.90
2300;DHT22;1158;48.750;9.078;2023-11-18T15:17:03;6.60;99.90
2300;DHT22;1158;48.750;9.078;2023-11-18T15:19:30;6.60;99.90
2300;DHT22;1158;48.750;9.078;2023-11-18T15:21:58;6.60;99.90
2300;DHT22;1158;48.750;9.078;2023-11-18T15:24:25;6.50;99.90
2300;DHT22;1158;48.750;9.078;2023-11-18T15:26:52;6.50;99.90
2300;DHT22;1158;48.750;9.078;2023-11-18T15:29:21;6.50;99.90
2300;DHT22;1158;48.750;9.078;2023-11-18T15:31:53;6.50;99.90
2300;DHT22;1158;48.750;9.078;2023-11-18T15:34:20;6.50;99.90
2300;DHT22;1158;48.750;9.078;2023-11-18T15:36:48;6.50;99.90
2300;DHT22;1158;48.750;9.078;2023-11-18T15:39:14;6.40;99.90
2300;DHT22;1158;48.750;9.078;2023-11-18T15:41:41;6.40;99.90
2300;DHT22;1158;48.750;9.078;2023-11-18T15:44:08;6.40;99.90
2300;DHT22;1158;48.750;9.078;2023-11-18T15:46:38;6.40;99.90
2300;DHT22;1158;48.750;9.078;2023-11-18T15:49:04;6.40;99.90
2300;DHT22;1158;48.750;9.078;2023-11-18T15:51:31;6.40;99.90
2300;DHT22;1158;48.750;9.078;2023-11-18T15:53:58;6.40;99.90
2300;DHT22;1158;48.750;9.078;2023-11-18T15:56:25;6.40;99.90
2300;DHT22;1158;48.750;9.078;2023-11-18T15:58:51;6.40;99.90
2300;DHT22;1158;48.750;9.078;2023-11-18T16:01:18;6.30;99.90
2300;DHT22;1158;48.750;9.078;2023-11-18T16:03:46;6.30;99.90
2300;DHT22;1158;48.750;9.078;2023-11-18T16:06:14;6.30;99.90
2300;DHT22;1158;48.750;9.078;2023-11-18T16:08:41;6.30;99.90
2300;DHT22;1158;48.750;9.078;2023-11-18T16:11:11;6.30;99.90
2300;DHT22;1158;48.750;9.078;2023-11-18T16:13:38;6.30;99.90
2300;DHT22;1158;48.750;9.078;2023-11-18T16:16:05;6.20;99.90
2300;DHT22;1158;48.750;9.078;2023-11-18T16:18:34;6.20;99.90
2300;DHT22;1158;48.750;9.078;2023-11-18T16:21:02;6.20;99.90
2300;DHT22;1158;48.750;9.078;2023-11-18T16:23:29;6.20;99.90
2300;DHT22;1158;48.750;9.078;2023-11-18T16:26:00;6.20;99.90
2300;DHT22;1158;48.750;9.078;2023-11-18T16:28:27;6.20;99.90
2300;DHT22;1158;48.750;9.078;2023-11-18T16:30:54;6.20;99.90
2300;DHT22;1158;48.750;9.078;2023-11-18T16:33:21;6.20;99.90
2300;DHT22;1158;48.750;9.078;2023-11-18T16:35:49;6.20;99.90
2300;DHT22;1158;48.750;9.078;2023-11-18T16:38:19;6.20;99.90
2300;DHT22;1158;48.750;9.078;2023-11-18T16:40:46;6.20;99.90
2300;DHT22;1158;48.750;9.078;2023-11-18T16:43:13;6.20;99.90
2300;DHT22;1158;48.750;9.078;2023-11-18T16:45:40;6.20;99.90
2300;DHT22;1158;48.750;9.078;2023-11-18T16:48:06;6.20;99.90
2300;DHT22;1158;48.750;9.078;2023-11-18T16:50:33;6.20;99.90
2300;DHT22;1158;48.750;9.078;2023-11-18T16:53:01;6.20;99.90
2300;DHT22;1158;48.750;9.078;2023-11-18T16:55:30;6.20;99.90
2300;DHT22;1158;48.750;9.078;2023-11-18T16:57:58;6.20;99.90
2300;DHT22;1158;48.750;9.078;2023-11-18T17:00:24;6.20;99.90
2300;DHT22;1158;48.750;9.078;2023-11-18T17:02:53;6.20;99.90
2300;DHT22;1158;48.750;9.078;2023-11-18T17:05:22;6.20;99.90
2300;DHT22;1158;48.750;9.078;2023-11-18T17:07:48;6.20;99.90
2300;DHT22;1158;48.750;9.078;2023-11-18T17:10:15;6.20;99.90
2300;DHT22;1158;48.750;9.078;2023-11-18T17:12:45;6.30;99.90
2300;DHT22;1158;48.750;9.078;2023-11-18T17:15:13;6.30;99.90
2300;DHT22;1158;48.750;9.078;2023-11-18T17:17:41;6.20;99.90
2300;DHT22;1158;48.750;9.078;2023-11-18T17:20:09;6.20;99.90
2300;DHT22;1158;48.750;9.078;2023-11-18T17:22:36;6.20;99.90
2300;DHT22;1158;48.750;9.078;2023-11-18T17:25:05;6.20;99.90
2300;DHT22;1158;48.750;9.078;2023-11-18T17:27:35;6.20;99.90
2300;DHT22;1158;48.750;9.078;2023-11-18T17:30:04;6.30;99.90
2300;DHT22;1158;48.750;9.078;2023-11-18T17:32:34;6.30;99.90
2300;DHT22;1158;48.750;9.078;2023-11-18T17:35:00;6.30;99.90
2300;DHT22;1158;48.750;9.078;2023-11-18T17:37:27;6.30;99.90
2300;DHT22;1158;48.750;9.078;2023-11-18T17:39:54;6.30;99.90
2300;DHT22;1158;48.750;9.078;2023-11-18T17:42:21;6.30;99.90
2300;DHT22;1158;48.750;9.078;2023-11-18T17:44:47;6.30;99.90
2300;DHT22;1158;48.750;9.078;2023-11-18T17:47:15;6.30;99.90
2300;DHT22;1158;48.750;9.078;2023-11-18T17:49:42;6.30;99.90
2300;DHT22;1158;48.750;9.078;2023-11-18T17:52:09;6.30;99.90
2300;DHT22;1158;48.750;9.078;2023-11-18T17:54:36;6.30;99.90
2300;DHT22;1158;48.750;9.078;2023-11-18T17:57:03;6.20;99.90
2300;DHT22;1158;48.750;9.078;2023-11-18T17:59:30;6.10;99.90
2300;DHT22;1158;48.750;9.078;2023-11-18T18:01:56;6.00;99.90
2300;DHT22;1158;48.750;9.078;2023-11-18T18:04:24;6.10;99.90
2300;DHT22;1158;48.750;9.078;2023-11-18T18:06:51;6.00;99.90
2300;DHT22;1158;48.750;9.078;2023-11-18T18:09:18;6.00;99.90
2300;DHT22;1158;48.750;9.078;2023-11-18T18:11:45;5.90;99.90
2300;DHT22;1158;48.750;9.078;2023-11-18T18:14:12;5.90;99.90
2300;DHT22;1158;48.750;9.078;2023-11-18T18:16:39;5.90;99.90
2300;DHT22;1158;48.750;9.078;2023-11-18T18:19:06;5.90;99.90
2300;DHT22;1158;48.750;9.078;2023-11-18T18:21:34;5.90;99.90
2300;DHT22;1158;48.750;9.078;2023-11-18T18:24:00;5.90;99.90
2300;DHT22;1158;48.750;9.078;2023-11-18T18:26:27;5.90;99.90
2300;DHT22;1158;48.750;9.078;2023-11-18T18:28:54;6.00;99.90
2300;DHT22;1158;48.750;9.078;2023-11-18T18:31:21;6.00;99.90
2300;DHT22;1158;48.750;9.078;2023-11-18T18:33:47;6.10;99.90
2300;DHT22;1158;48.750;9.078;2023-11-18T18:36:16;6.10;99.90
2300;DHT22;1158;48.750;9.078;2023-11-18T18:38:45;6.20;99.90
2300;DHT22;1158;48.750;9.078;2023-11-18T18:41:15;6.20;99.90
2300;DHT22;1158;48.750;9.078;2023-11-18T18:43:42;6.30;99.90
2300;DHT22;1158;48.750;9.078;2023-11-18T18:46:09;6.30;99.90
2300;DHT22;1158;48.750;9.078;2023-11-18T18:48:35;6.30;99.90
2300;DHT22;1158;48.750;9.078;2023-11-18T18:51:03;6.40;99.90
2300;DHT22;1158;48.750;9.078;2023-11-18T18:53:30;6.30;99.90
2300;DHT22;1158;48.750;9.078;2023-11-18T18:55:58;6.30;99.90
2300;DHT22;1158;48.750;9.078;2023-11-18T18:58:25;6.30;99.90
2300;DHT22;1158;48.750;9.078;2023-11-18T19:00:52;6.30;99.90
2300;DHT22;1158;48.750;9.078;2023-11-18T19:03:19;6.20;99.90
2300;DHT22;1158;48.750;9.078;2023-11-18T19:05:46;6.10;99.90
2300;DHT22;1158;48.750;9.078;2023-11-18T19:08:13;6.10;99.90
2300;DHT22;1158;48.750;9.078;2023-11-18T19:10:39;6.10;99.90
2300;DHT22;1158;48.750;9.078;2023-11-18T19:13:07;6.10;99.90
2300;DHT22;1158;48.750;9.078;2023-11-18T19:15:34;6.10;99.90
2300;DHT22;1158;48.750;9.078;2023-11-18T19:18:01;6.10;99.90
2300;DHT22;1158;48.750;9.078;2023-11-18T19:20:29;6.10;99.90
2300;DHT22;1158;48.750;9.078;2023-11-18T19:22:56;6.00;99.90
2300;DHT22;1158;48.750;9.078;2023-11-18T19:25:23;6.10;99.90
2300;DHT22;1158;48.750;9.078;2023-11-18T19:27:50;6.20;99.90
2300;DHT22;1158;48.750;9.078;2023-11-18T19:30:19;6.20;99.90
2300;DHT22;1158;48.750;9.078;2023-11-18T19:32:45;6.20;99.90
2300;DHT22;1158;48.750;9.078;2023-11-18T19:35:12;6.20;99.90
2300;DHT22;1158;48.750;9.078;2023-11-18T19:37:39;6.20;99.90
2300;DHT22;1158;48.750;9.078;2023-11-18T19:40:08;6.20;99.90
2300;DHT22;1158;48.750;9.078;2023-11-18T19:42:36;6.20;99.90
2300;DHT22;1158;48.750;9.078;2023-11-18T19:45:04;6.30;99.90
2300;DHT22;1158;48.750;9.078;2023-11-18T19:47:32;6.30;99.90
2300;DHT22;1158;48.750;9.078;2023-11-18T19:50:01;6.20;99.90
2300;DHT22;1158;48.750;9.078;2023-11-18T19:52:29;6.30;99.90
2300;DHT22;1158;48.750;9.078;2023-11-18T19:54:55;6.40;99.90
2300;DHT22;1158;48.750;9.078;2023-11-18T19:57:22;6.30;99.90
2300;DHT22;1158;48.750;9.078;2023-11-18T19:59:49;6.30;99.90
2300;DHT22;1158;48.750;9.078;2023-11-18T20:02:16;6.30;99.90
2300;DHT22;1158;48.750;9.078;2023-11-18T20:04:44;6.30;99.90
2300;DHT22;1158;48.750;9.078;2023-11-18T20:07:12;6.30;99.90
2300;DHT22;1158;48.750;9.078;2023-11-18T20:09:39;6.30;99.90
2300;DHT22;1158;48.750;9.078;2023-11-18T20:12:06;6.30;99.90
2300;DHT22;1158;48.750;9.078;2023-11-18T20:14:33;6.30;99.90
2300;DHT22;1158;48.750;9.078;2023-11-18T20:17:00;6.30;99.90
2300;DHT22;1158;48.750;9.078;2023-11-18T20:19:27;6.40;99.90
2300;DHT22;1158;48.750;9.078;2023-11-18T20:21:55;6.40;99.90
2300;DHT22;1158;48.750;9.078;2023-11-18T20:24:22;6.40;99.90
2300;DHT22;1158;48.750;9.078;2023-11-18T20:26:49;6.40;99.90
2300;DHT22;1158;48.750;9.078;2023-11-18T20:29:16;6.50;99.90
2300;DHT22;1158;48.750;9.078;2023-11-18T20:31:43;6.50;99.90
2300;DHT22;1158;48.750;9.078;2023-11-18T20:34:10;6.50;99.90
2300;DHT22;1158;48.750;9.078;2023-11-18T20:36:37;6.60;99.90
2300;DHT22;1158;48.750;9.078;2023-11-18T20:39:06;6.60;99.90
2300;DHT22;1158;48.750;9.078;2023-11-18T20:41:33;6.60;99.90
2300;DHT22;1158;48.750;9.078;2023-11-18T20:43:59;6.60;99.90
2300;DHT22;1158;48.750;9.078;2023-11-18T20:46:28;6.70;99.90
2300;DHT22;1158;48.750;9.078;2023-11-18T20:48:54;6.70;99.90
2300;DHT22;1158;48.750;9.078;2023-11-18T20:51:22;6.80;99.90
2300;DHT22;1158;48.750;9.078;2023-11-18T20:53:49;6.80;99.90
2300;DHT22;1158;48.750;9.078;2023-11-18T20:56:17;6.90;99.90
2300;DHT22;1158;48.750;9.078;2023-11-18T20:58:46;6.90;99.90
2300;DHT22;1158;48.750;9.078;2023-11-18T21:01:14;6.80;99.90
2300;DHT22;1158;48.750;9.078;2023-11-18T21:03:41;6.80;99.90
2300;DHT22;1158;48.750;9.078;2023-11-18T21:06:08;6.90;99.90
2300;DHT22;1158;48.750;9.078;2023-11-18T21:08:35;7.00;99.90
2300;DHT22;1158;48.750;9.078;2023-11-18T21:11:02;7.00;99.90
2300;DHT22;1158;48.750;9.078;2023-11-18T21:13:31;7.00;99.90
2300;DHT22;1158;48.750;9.078;2023-11-18T21:16:00;7.10;99.90
2300;DHT22;1158;48.750;9.078;2023-11-18T21:18:27;7.10;99.90
2300;DHT22;1158;48.750;9.078;2023-11-18T21:20:53;7.10;99.90
2300;DHT22;1158;48.750;9.078;2023-11-18T21:23:20;7.10;99.90
2300;DHT22;1158;48.750;9.078;2023-11-18T21:25:47;7.10;99.90
2300;DHT22;1158;48.750;9.078;2023-11-18T21:28:13;7.10;99.90
2300;DHT22;1158;48.750;9.078;2023-11-18T21:30:41;7.10;99.90
2300;DHT22;1158;48.750;9.078;2023-11-18T21:33:08;7.20;99.90
2300;DHT22;1158;48.750;9.078;2023-11-18T21:35:35;7.20;99.90
2300;DHT22;1158;48.750;9.078;2023-11-18T21:38:01;7.20;99.90
2300;DHT22;1158;48.750;9.078;2023-11-18T21:40:28;7.30;99.90
2300;DHT22;1158;48.750;9.078;2023-11-18T21:42:55;7.30;99.90
2300;DHT22;1158;48.750;9.078;2023-11-18T21:45:23;7.30;99.90
2300;DHT22;1158;48.750;9.078;2023-11-18T21:47:54;7.30;99.90
2300;DHT22;1158;48.750;9.078;2023-11-18T21:50:24;7.40;99.90
2300;DHT22;1158;48.750;9.078;2023-11-18T21:52:51;7.30;99.90
2300;DHT22;1158;48.750;9.078;2023-11-18T21:55:18;7.40;99.90
2300;DHT22;1158;48.750;9.078;2023-11-18T21:57:45;7.30;99.90
2300;DHT22;1158;48.750;9.078;2023-11-18T22:00:13;7.40;99.90
2300;DHT22;1158;48.750;9.078;2023-11-18T22:02:43;7.40;99.90
2300;DHT22;1158;48.750;9.078;2023-11-18T22:05:12;7.40;99.90
2300;DHT22;1158;48.750;9.078;2023-11-18T22:07:39;7.40;99.90
2300;DHT22;1158;48.750;9.078;2023-11-18T22:10:08;7.40;99.90
2300;DHT22;1158;48.750;9.078;2023-11-18T22:12:37;7.40;99.90
2300;DHT22;1158;48.750;9.078;2023-11-18T22:15:04;7.30;99.90
2300;DHT22;1158;48.750;9.078;2023-11-18T22:17:32;7.30;99.90
2300;DHT22;1158;48.750;9.078;2023-11-18T22:19:59;7.30;99.90
2300;DHT22;1158;48.750;9.078;2023-11-18T22:22:27;7.10;99.90
2300;DHT22;1158;48.750;9.078;2023-11-18T22:24:54;7.10;99.90
2300;DHT22;1158;48.750;9.078;2023-11-18T22:27:21;6.90;99.90
2300;DHT22;1158;48.750;9.078;2023-11-18T22:29:47;6.90;99.90
2300;DHT22;1158;48.750;9.078;2023-11-18T22:32:14;6.90;99.90
2300;DHT22;1158;48.750;9.078;2023-11-18T22:34:42;6.80;99.90
2300;DHT22;1158;48.750;9.078;2023-11-18T22:37:11;6.90;99.90
2300;DHT22;1158;48.750;9.078;2023-11-18T22:39:39;6.80;99.90
2300;DHT22;1158;48.750;9.078;2023-11-18T22:42:07;6.80;99.90
2300;DHT22;1158;48.750;9.078;2023-11-18T22:44:38;6.90;99.90
2300;DHT22;1158;48.750;9.078;2023-11-18T22:47:07;6.90;99.90
2300;DHT22;1158;48.750;9.078;2023-11-18T22:49:34;6.90;99.90
2300;DHT22;1158;48.750;9.078;2023-11-18T22:52:03;6.80;99.90
2300;DHT22;1158;48.750;9.078;2023-11-18T22:54:29;6.90;99.90
2300;DHT22;1158;48.750;9.078;2023-11-18T22:56:57;6.80;99.90
2300;DHT22;1158;48.750;9.078;2023-11-18T22:59:24;6.90;99.90
2300;DHT22;1158;48.750;9.078;2023-11-18T23:01:51;6.90;99.90
2300;DHT22;1158;48.750;9.078;2023-11-18T23:04:17;6.90;99.90
2300;DHT22;1158;48.750;9.078;2023-11-18T23:06:44;6.90;99.90
2300;DHT22;1158;48.750;9.078;2023-11-18T23:09:13;6.90;99.90
2300;DHT22;1158;48.750;9.078;2023-11-18T23:11:39;6.90;99.90
2300;DHT22;1158;48.750;9.078;2023-11-18T23:14:07;7.00;99.90
2300;DHT22;1158;48.750;9.078;2023-11-18T23:16:34;6.90;99.90
2300;DHT22;1158;48.750;9.078;2023-11-18T23:19:01;7.00;99.90
2300;DHT22;1158;48.750;9.078;2023-11-18T23:21:28;7.00;99.90
2300;DHT22;1158;48.750;9.078;2023-11-18T23:23:55;7.00;99.90
2300;DHT22;1158;48.750;9.078;2023-11-18T23:26:21;7.00;99.90
2300;DHT22;1158;48.750;9.078;2023-11-18T23:28:48;7.00;99.90
2300;DHT22;1158;48.750;9.078;2023-11-18T23:31:16;7.10;99.90
2300;DHT22;1158;48.750;9.078;2023-11-18T23:33:43;7.10;99.90
2300;DHT22;1158;48.750;9.078;2023-11-18T23:36:10;7.10;99.90
2300;DHT22;1158;48.750;9.078;2023-11-18T23:38:40;7.10;99.90
2300;DHT22;1158;48.750;9.078;2023-11-18T23:41:07;7.10;99.90
2300;DHT22;1158;48.750;9.078;2023-11-18T23:43:34;7.20;99.90
2300;DHT22;1158;48.750;9.078;2023-11-18T23:46:01;7.10;99.90
2300;DHT22;1158;48.750;9.078;2023-11-18T23:48:29;7.10;99.90
2300;DHT22;1158;48.750;9.078;2023-11-18T23:50:58;7.20;99.90
2300;DHT22;1158;48.750;9.078;2023-11-18T23:53:24;7.20;99.90
2300;DHT22;1158;48.750;9.078;2023-11-18T23:55:51;7.20;99.90
2300;DHT22;1158;48.750;9.078;2023-11-18T23:58:18;7.30;99.90
